createdAt,value
2019-05-20T00:00:54.947Z,92.30
2019-05-20T00:03:24.574Z,92.00
2019-05-20T00:05:54.278Z,92.00
2019-05-20T00:08:23.861Z,91.90
2019-05-20T00:10:53.508Z,92.40
2019-05-20T00:13:23.228Z,92.20
2019-05-20T00:15:52.849Z,92.30
2019-05-20T00:18:22.572Z,92.20
2019-05-20T00:20:52.283Z,92.50
2019-05-20T00:25:50.912Z,92.70
2019-05-20T00:28:20.575Z,92.70
2019-05-20T00:30:50.181Z,92.50
2019-05-20T00:33:20.041Z,93.00
2019-05-20T00:35:49.639Z,93.20
2019-05-20T00:38:19.290Z,92.80
2019-05-20T00:40:49.024Z,92.80
2019-05-20T00:43:18.631Z,93.00
2019-05-20T00:45:48.406Z,92.70
2019-05-20T00:48:18.047Z,92.90
2019-05-20T00:50:47.667Z,92.50
2019-05-20T00:53:17.360Z,92.40
2019-05-20T00:55:47.151Z,92.60
2019-05-20T00:58:16.816Z,92.60
2019-05-20T01:00:46.475Z,92.80
2019-05-20T01:03:16.103Z,92.60
2019-05-20T01:05:45.774Z,92.60
2019-05-20T01:08:15.401Z,92.40
2019-05-20T01:10:45.154Z,91.30
2019-05-20T01:13:14.945Z,92.30
2019-05-20T01:15:44.655Z,91.90
2019-05-20T01:18:14.352Z,91.90
2019-05-20T01:20:44.044Z,91.70
2019-05-20T01:23:13.720Z,91.70
2019-05-20T01:25:43.476Z,91.80
2019-05-20T01:28:13.096Z,92.40
2019-05-20T01:30:42.805Z,91.90
2019-05-20T01:33:14.169Z,89.20
2019-05-20T01:35:43.767Z,91.60
2019-05-20T01:38:13.562Z,92.10
2019-05-20T01:40:43.628Z,91.80
2019-05-20T01:43:13.279Z,91.40
2019-05-20T01:45:42.937Z,91.80
2019-05-20T01:48:12.539Z,92.00
2019-05-20T01:50:49.478Z,91.90
2019-05-20T01:53:19.151Z,92.00
2019-05-20T01:55:48.864Z,91.90
2019-05-20T01:58:18.509Z,91.60
2019-05-20T02:00:48.311Z,91.50
2019-05-20T02:03:30.986Z,92.40
2019-05-20T02:05:50.110Z,92.20
2019-05-20T02:08:19.755Z,92.40
2019-05-20T02:10:49.402Z,91.80
2019-05-20T02:13:19.004Z,91.50
2019-05-20T02:15:55.337Z,91.90
2019-05-20T02:18:24.993Z,92.00
2019-05-20T02:21:03.387Z,91.70
2019-05-20T02:26:02.034Z,92.30
2019-05-20T02:31:19.710Z,92.00
2019-05-20T02:33:52.754Z,91.80
2019-05-20T02:36:21.271Z,91.70
2019-05-20T02:39:00.012Z,91.70
2019-05-20T02:41:29.769Z,91.70
2019-05-20T02:46:28.390Z,91.70
2019-05-20T02:51:32.943Z,92.20
2019-05-20T02:54:03.997Z,91.70
2019-05-20T02:56:33.641Z,91.50
2019-05-20T02:59:03.344Z,92.30
2019-05-20T03:01:33.063Z,91.50
2019-05-20T03:04:11.708Z,91.70
2019-05-20T03:06:34.076Z,91.90
2019-05-20T03:09:04.080Z,91.80
2019-05-20T03:11:33.793Z,92.00
2019-05-20T03:16:32.487Z,92.20
2019-05-20T03:19:02.154Z,92.40
2019-05-20T03:21:31.797Z,91.90
2019-05-20T03:24:01.452Z,91.70
2019-05-20T03:26:31.106Z,92.10
2019-05-20T03:29:00.722Z,91.40
2019-05-20T03:31:30.343Z,92.00
2019-05-20T03:34:00.085Z,92.00
2019-05-20T03:36:29.718Z,92.50
2019-05-20T03:38:59.344Z,91.90
2019-05-20T03:41:29.039Z,91.60
2019-05-20T03:43:58.782Z,92.10
2019-05-20T03:46:28.470Z,91.90
2019-05-20T03:48:58.151Z,91.70
2019-05-20T03:51:27.860Z,91.80
2019-05-20T03:53:57.600Z,92.00
2019-05-20T03:56:27.241Z,91.60
2019-05-20T03:58:56.968Z,91.80
2019-05-20T04:06:24.544Z,91.80
2019-05-20T04:08:57.060Z,92.00
2019-05-20T04:11:26.703Z,89.40
2019-05-20T04:16:25.393Z,92.80
2019-05-20T04:18:55.068Z,92.10
2019-05-20T04:21:24.745Z,92.00
2019-05-20T04:23:54.481Z,92.30
2019-05-20T04:26:24.121Z,84.40
2019-05-20T04:28:53.934Z,92.00
2019-05-20T04:31:23.586Z,92.00
2019-05-20T04:33:53.410Z,91.50
2019-05-20T04:36:23.129Z,91.50
2019-05-20T04:38:56.282Z,91.80
2019-05-20T04:41:26.236Z,91.40
2019-05-20T04:43:55.976Z,91.60
2019-05-20T04:48:54.712Z,91.20
2019-05-20T04:51:24.366Z,91.20
2019-05-20T04:56:23.036Z,91.20
2019-05-20T04:58:52.703Z,91.20
2019-05-20T05:01:22.412Z,91.10
2019-05-20T05:03:52.125Z,91.20
2019-05-20T05:06:21.804Z,91.40
2019-05-20T05:08:51.497Z,91.10
2019-05-20T05:11:21.228Z,90.60
2019-05-20T05:13:50.894Z,90.80
2019-05-20T05:16:20.759Z,90.80
2019-05-20T05:18:50.461Z,90.80
2019-05-20T05:21:20.137Z,90.50
2019-05-20T05:23:58.907Z,90.50
2019-05-20T05:26:21.221Z,90.50
2019-05-20T05:28:51.045Z,90.20
2019-05-20T05:31:20.849Z,89.40
2019-05-20T05:33:54.136Z,90.00
2019-05-20T05:36:22.040Z,90.30
2019-05-20T05:38:51.823Z,90.00
2019-05-20T05:41:21.584Z,89.80
2019-05-20T05:43:51.225Z,87.10
2019-05-20T05:46:21.004Z,87.30
2019-05-20T05:48:51.662Z,88.30
2019-05-20T05:51:21.353Z,88.70
2019-05-20T05:56:20.052Z,89.60
2019-05-20T05:58:49.841Z,89.50
2019-05-20T06:01:19.559Z,88.90
2019-05-20T06:03:49.298Z,90.00
2019-05-20T06:06:18.934Z,88.10
2019-05-20T06:08:48.599Z,77.90
2019-05-20T06:11:18.292Z,88.30
2019-05-20T06:13:49.652Z,88.30
2019-05-20T06:16:35.255Z,88.40
2019-05-20T06:18:55.596Z,88.40
2019-05-20T06:26:47.608Z,88.20
2019-05-20T06:36:51.335Z,88.40
2019-05-20T06:39:23.540Z,88.80
2019-05-20T06:44:25.388Z,88.70
2019-05-20T06:49:39.501Z,87.90
2019-05-20T06:52:14.735Z,89.10
2019-05-20T06:54:46.340Z,88.80
2019-05-20T06:59:50.377Z,87.90
2019-05-20T07:02:22.851Z,87.50
2019-05-20T07:07:31.015Z,87.50
2019-05-20T07:10:08.159Z,88.00
2019-05-20T07:12:52.901Z,87.60
2019-05-20T07:15:22.602Z,87.70
2019-05-20T07:18:00.252Z,87.70
2019-05-20T07:20:39.508Z,87.20
2019-05-20T07:25:44.579Z,87.80
2019-05-20T07:28:16.791Z,86.80
2019-05-20T07:30:50.601Z,83.20
2019-05-20T07:36:13.703Z,86.20
2019-05-20T07:38:43.579Z,85.20
2019-05-20T07:41:13.313Z,86.20
2019-05-20T07:43:45.187Z,86.00
2019-05-20T07:46:14.703Z,86.10
2019-05-20T07:48:45.254Z,86.30
2019-05-20T07:51:15.902Z,86.40
2019-05-20T07:53:45.978Z,86.00
2019-05-20T07:56:19.265Z,84.90
2019-05-20T07:58:51.906Z,86.20
2019-05-20T08:01:21.953Z,86.20
2019-05-20T08:03:53.669Z,86.30
2019-05-20T08:06:26.129Z,85.60
2019-05-20T08:08:55.942Z,87.00
2019-05-20T08:11:25.614Z,86.80
2019-05-20T08:13:55.300Z,86.10
2019-05-20T08:16:25.474Z,86.50
2019-05-20T08:18:55.163Z,86.50
2019-05-20T08:21:24.911Z,86.60
2019-05-20T08:23:54.609Z,86.30
2019-05-20T08:26:24.512Z,86.50
2019-05-20T08:28:56.239Z,86.40
2019-05-20T08:31:44.633Z,86.70
2019-05-20T08:34:15.801Z,86.30
2019-05-20T08:36:51.611Z,86.50
2019-05-20T08:39:18.722Z,86.60
2019-05-20T08:41:48.495Z,86.30
2019-05-20T08:44:18.490Z,86.70
2019-05-20T08:46:48.358Z,87.10
2019-05-20T08:49:19.114Z,86.30
2019-05-20T08:51:48.845Z,87.80
2019-05-20T08:54:40.295Z,80.10
2019-05-20T08:57:06.498Z,86.20
2019-05-20T08:59:37.707Z,86.00
2019-05-20T09:02:07.405Z,85.90
2019-05-20T09:04:37.209Z,85.70
2019-05-20T09:07:09.693Z,85.80
2019-05-20T09:09:39.645Z,85.20
2019-05-20T09:12:11.476Z,85.30
2019-05-20T09:14:41.175Z,85.80
2019-05-20T09:17:10.935Z,85.40
2019-05-20T09:19:40.626Z,84.80
2019-05-20T09:22:10.462Z,84.20
2019-05-20T09:24:40.308Z,84.90
2019-05-20T09:27:10.068Z,84.90
2019-05-20T09:29:39.926Z,84.40
2019-05-20T09:34:38.989Z,84.30
2019-05-20T09:37:10.320Z,78.90
2019-05-20T09:39:42.111Z,83.80
2019-05-20T09:42:16.921Z,83.10
2019-05-20T09:44:46.841Z,83.10
2019-05-20T09:47:16.534Z,82.80
2019-05-20T09:49:47.673Z,83.10
2019-05-20T09:52:18.744Z,83.10
2019-05-20T09:54:48.554Z,82.90
2019-05-20T09:57:19.491Z,82.50
2019-05-20T09:59:49.153Z,84.00
2019-05-20T10:02:20.377Z,81.50
2019-05-20T10:04:50.348Z,81.70
2019-05-20T10:07:20.098Z,81.10
2019-05-20T10:09:49.769Z,80.90
2019-05-20T10:12:20.709Z,80.40
2019-05-20T10:14:52.756Z,79.90
2019-05-20T10:17:24.165Z,80.00
2019-05-20T10:19:56.409Z,69.50
2019-05-20T10:27:32.792Z,78.90
2019-05-20T10:30:02.650Z,71.50
2019-05-20T10:32:34.918Z,77.90
2019-05-20T10:35:04.969Z,77.40
2019-05-20T10:37:36.263Z,76.60
2019-05-20T10:40:06.471Z,76.60
2019-05-20T10:42:36.187Z,76.90
2019-05-20T10:45:09.382Z,76.40
2019-05-20T10:47:41.853Z,75.80
2019-05-20T10:50:12.000Z,75.90
2019-05-20T10:52:41.719Z,75.30
2019-05-20T10:55:11.734Z,75.50
2019-05-20T10:57:44.669Z,74.90
2019-05-20T11:00:20.335Z,75.30
2019-05-20T11:02:51.485Z,74.40
2019-05-20T11:07:51.997Z,75.30
2019-05-20T11:10:27.083Z,74.50
2019-05-20T11:12:59.262Z,74.30
2019-05-20T11:15:29.212Z,74.00
2019-05-20T11:17:59.089Z,74.30
2019-05-20T11:20:33.873Z,70.00
2019-05-20T11:23:56.263Z,73.40
2019-05-20T11:26:40.131Z,74.80
2019-05-20T11:29:36.601Z,73.60
2019-05-20T11:49:09.215Z,79.20
2019-05-20T12:08:00.118Z,61.60
2019-05-20T12:14:57.795Z,62.80
2019-05-20T12:17:59.082Z,63.60
2019-05-20T12:24:46.641Z,73.10
2019-05-20T12:27:09.743Z,74.90
2019-05-20T12:29:39.654Z,76.30
2019-05-20T12:32:12.586Z,75.80
2019-05-20T12:34:55.581Z,74.90
2019-05-20T12:40:07.049Z,67.80
2019-05-20T12:42:30.331Z,76.00
2019-05-20T12:45:00.251Z,70.60
2019-05-20T12:47:30.063Z,71.50
2019-05-20T12:49:59.823Z,70.20
2019-05-20T12:52:29.803Z,70.40
2019-05-20T12:55:07.752Z,70.00
2019-05-20T12:57:31.103Z,76.00
2019-05-20T13:00:00.849Z,70.20
2019-05-20T13:02:30.716Z,68.90
2019-05-20T13:05:00.724Z,68.30
2019-05-20T13:07:33.010Z,68.40
2019-05-20T13:10:25.942Z,68.70
2019-05-20T13:12:38.349Z,70.10
2019-05-20T13:15:14.009Z,66.60
2019-05-20T13:17:44.993Z,65.30
2019-05-20T13:20:15.060Z,60.50
2019-05-20T13:22:44.969Z,58.20
2019-05-20T13:25:14.946Z,55.90
2019-05-20T13:27:44.679Z,53.80
2019-05-20T13:30:16.462Z,52.50
2019-05-20T13:32:46.367Z,51.10
2019-05-20T13:35:18.420Z,49.10
2019-05-20T13:37:50.379Z,48.80
2019-05-20T13:40:23.648Z,47.10
2019-05-20T13:42:56.716Z,46.40
2019-05-20T13:45:29.820Z,45.70
2019-05-20T13:48:00.865Z,45.40
2019-05-20T13:50:30.756Z,45.90
2019-05-20T13:53:03.073Z,45.80
2019-05-20T13:55:39.445Z,46.70
2019-05-20T13:58:11.634Z,46.20
2019-05-20T14:00:41.551Z,44.80
2019-05-20T14:03:11.639Z,43.70
2019-05-20T14:05:44.100Z,42.60
2019-05-20T14:08:14.193Z,42.20
2019-05-20T14:10:44.015Z,41.80
2019-05-20T14:13:13.806Z,41.40
2019-05-20T14:15:43.541Z,42.00
2019-05-20T14:18:13.243Z,42.20
2019-05-20T14:20:43.115Z,43.40
2019-05-20T14:23:12.927Z,43.80
2019-05-20T14:25:42.675Z,44.10
2019-05-20T14:28:12.417Z,43.40
2019-05-20T14:30:42.240Z,42.50
2019-05-20T14:33:12.015Z,42.70
2019-05-20T14:35:46.474Z,43.30
2019-05-20T14:38:16.204Z,42.40
2019-05-20T14:40:47.109Z,44.00
2019-05-20T14:43:23.375Z,43.40
2019-05-20T14:45:53.232Z,43.20
2019-05-20T14:48:23.100Z,44.50
2019-05-20T14:50:52.897Z,45.20
2019-05-20T14:53:22.923Z,45.30
2019-05-20T14:55:54.241Z,45.60
2019-05-20T14:58:24.172Z,46.40
2019-05-20T15:01:03.350Z,47.20
2019-05-20T15:03:31.591Z,49.60
2019-05-20T15:06:06.319Z,49.20
2019-05-20T15:08:36.929Z,50.80
2019-05-20T15:11:12.251Z,50.20
2019-05-20T15:13:44.095Z,51.30
2019-05-20T15:16:15.257Z,52.80
2019-05-20T15:18:47.041Z,51.40
2019-05-20T15:21:19.380Z,52.00
2019-05-20T15:23:49.422Z,51.40
2019-05-20T15:29:27.631Z,48.60
2019-05-20T15:31:46.646Z,47.40
2019-05-20T15:34:17.745Z,45.40
2019-05-20T15:36:47.740Z,43.20
2019-05-20T15:39:19.266Z,42.30
2019-05-20T15:41:49.334Z,42.10
2019-05-20T15:44:20.988Z,40.70
2019-05-20T15:46:54.995Z,39.40
2019-05-20T15:49:26.324Z,38.00
2019-05-20T15:52:05.025Z,37.50
2019-05-20T15:54:51.369Z,36.30
2019-05-20T15:57:30.653Z,36.40
2019-05-20T16:00:02.912Z,35.80
2019-05-20T16:02:51.342Z,36.30
2019-05-20T16:05:23.515Z,35.50
2019-05-20T16:07:53.223Z,34.50
2019-05-20T16:10:23.018Z,34.00
2019-05-20T16:12:52.931Z,33.50
2019-05-20T16:15:26.730Z,34.80
2019-05-20T16:17:59.638Z,32.90
2019-05-20T16:20:34.775Z,34.00
2019-05-20T16:23:10.101Z,33.60
2019-05-20T16:25:44.532Z,33.00
2019-05-20T16:28:14.191Z,33.40
2019-05-20T16:30:44.335Z,33.20
2019-05-20T16:33:14.148Z,32.80
2019-05-20T16:35:44.244Z,34.00
2019-05-20T16:38:14.005Z,34.00
2019-05-20T16:40:43.987Z,33.80
2019-05-20T16:43:14.929Z,33.80
2019-05-20T16:45:51.150Z,34.20
2019-05-20T16:48:22.862Z,34.30
2019-05-20T16:54:03.362Z,35.20
2019-05-20T16:56:33.316Z,37.00
2019-05-20T16:59:04.302Z,36.10
2019-05-20T17:01:45.961Z,36.50
2019-05-20T17:04:09.622Z,38.00
2019-05-20T17:06:39.419Z,38.00
2019-05-20T17:09:13.584Z,43.10
2019-05-20T17:11:43.319Z,41.10
2019-05-20T17:14:13.243Z,38.40
2019-05-20T17:16:43.061Z,40.80
2019-05-20T17:19:13.964Z,40.20
2019-05-20T17:21:43.743Z,45.50
2019-05-20T17:24:13.811Z,40.30
2019-05-20T17:26:43.592Z,41.20
2019-05-20T17:31:42.606Z,39.90
2019-05-20T17:34:15.183Z,48.50
2019-05-20T17:36:44.850Z,42.30
2019-05-20T17:39:14.626Z,43.40
2019-05-20T17:41:44.344Z,42.10
2019-05-20T17:44:14.324Z,43.30
2019-05-20T17:46:44.045Z,44.40
2019-05-20T17:49:14.038Z,43.20
2019-05-20T17:51:43.804Z,44.80
2019-05-20T17:54:16.410Z,44.60
2019-05-20T17:56:46.017Z,47.20
2019-05-20T17:59:15.963Z,51.70
2019-05-20T18:01:45.829Z,45.40
2019-05-20T18:04:15.771Z,46.20
2019-05-20T18:06:45.784Z,47.40
2019-05-20T18:09:15.639Z,52.50
2019-05-20T18:11:45.253Z,46.90
2019-05-20T18:14:14.985Z,46.50
2019-05-20T18:16:44.700Z,53.30
2019-05-20T18:19:14.602Z,47.80
2019-05-20T18:21:44.451Z,48.10
2019-05-20T18:24:14.342Z,53.90
2019-05-20T18:26:44.220Z,54.50
2019-05-20T18:29:14.228Z,49.40
2019-05-20T18:31:43.976Z,48.20
2019-05-20T18:34:13.924Z,55.60
2019-05-20T18:36:43.855Z,56.20
2019-05-20T18:39:18.097Z,50.90
2019-05-20T18:41:47.808Z,55.60
2019-05-20T18:44:19.171Z,50.20
2019-05-20T18:46:52.948Z,56.10
2019-05-20T18:49:29.754Z,56.70
2019-05-20T18:54:28.924Z,57.00
2019-05-20T18:57:00.780Z,57.50
2019-05-20T18:59:33.702Z,57.40
2019-05-20T19:02:06.040Z,57.90
2019-05-20T19:04:56.887Z,58.50
2019-05-20T19:07:46.037Z,58.30
2019-05-20T19:10:28.551Z,58.60
2019-05-20T19:13:10.781Z,58.70
2019-05-20T19:15:41.613Z,58.50
2019-05-20T19:18:18.750Z,59.40
2019-05-20T19:20:50.279Z,59.20
2019-05-20T19:23:24.156Z,59.10
2019-05-20T19:25:56.000Z,59.80
2019-05-20T19:28:34.819Z,59.40
2019-05-20T19:31:14.977Z,59.70
2019-05-20T19:34:03.215Z,60.50
2019-05-20T19:36:53.849Z,60.20
2019-05-20T19:39:06.732Z,60.70
2019-05-20T19:41:40.984Z,60.70
2019-05-20T19:44:13.749Z,54.50
2019-05-20T19:46:48.731Z,61.00
2019-05-20T19:49:27.345Z,60.70
2019-05-20T19:52:00.412Z,60.40
2019-05-20T19:54:36.505Z,55.30
2019-05-20T19:57:09.586Z,60.80
2019-05-20T19:59:44.881Z,61.30
2019-05-20T20:02:32.358Z,55.90
2019-05-20T20:05:06.630Z,61.70
2019-05-20T20:07:45.503Z,62.20
2019-05-20T20:10:24.662Z,58.50
2019-05-20T20:12:58.051Z,62.60
2019-05-20T20:18:24.323Z,63.80
2019-05-20T20:21:04.912Z,60.00
2019-05-20T20:23:28.935Z,64.70
2019-05-20T20:26:01.331Z,64.80
2019-05-20T20:28:37.481Z,66.10
2019-05-20T20:31:10.866Z,65.30
2019-05-20T20:33:43.966Z,64.90
2019-05-20T20:38:49.774Z,65.80
2019-05-20T20:41:22.687Z,60.20
2019-05-20T20:43:52.584Z,66.90
2019-05-20T20:46:24.503Z,66.20
2019-05-20T20:48:54.173Z,58.80
2019-05-20T20:51:24.352Z,59.20
2019-05-20T20:53:55.813Z,66.60
2019-05-20T20:56:29.979Z,66.20
2019-05-20T20:58:59.900Z,66.70
2019-05-20T21:01:31.458Z,67.10
2019-05-20T21:04:11.596Z,66.30
2019-05-20T21:06:45.890Z,66.50
2019-05-20T21:09:14.389Z,66.70
2019-05-20T21:11:50.043Z,66.40
2019-05-20T21:14:22.318Z,66.90
2019-05-20T21:16:57.267Z,66.80
2019-05-20T21:19:31.997Z,67.00
2019-05-20T21:22:09.770Z,66.50
2019-05-20T21:24:40.872Z,67.40
2019-05-20T21:27:13.293Z,67.40
2019-05-20T21:29:43.475Z,68.00
2019-05-20T21:32:13.399Z,67.00
2019-05-20T21:34:50.016Z,60.90
2019-05-20T21:37:15.638Z,67.30
2019-05-20T21:39:45.644Z,67.80
2019-05-20T21:42:19.733Z,68.30
2019-05-20T21:44:47.355Z,68.10
2019-05-20T21:47:20.179Z,68.40
2019-05-20T21:49:50.166Z,61.30
2019-05-20T21:52:22.752Z,68.60
2019-05-20T21:54:52.659Z,69.90
2019-05-20T21:57:24.577Z,69.60
2019-05-20T21:59:54.070Z,69.30
2019-05-20T22:02:26.770Z,69.10
2019-05-20T22:04:57.040Z,69.10
2019-05-20T22:07:29.830Z,68.90
2019-05-20T22:10:03.305Z,63.50
2019-05-20T22:12:33.207Z,60.80
2019-05-20T22:15:02.914Z,61.50
2019-05-20T22:17:32.776Z,62.20
2019-05-20T22:20:06.434Z,60.90
2019-05-20T22:22:47.209Z,62.60
2019-05-20T22:25:19.854Z,69.10
2019-05-20T22:27:49.762Z,68.50
2019-05-20T22:30:21.718Z,69.00
2019-05-20T22:32:51.287Z,68.50
2019-05-20T22:35:21.084Z,68.90
2019-05-20T22:37:52.062Z,69.60
2019-05-20T22:40:23.987Z,63.60
2019-05-20T22:42:54.958Z,63.60
2019-05-20T22:47:57.394Z,70.70
2019-05-20T22:50:33.789Z,69.70
2019-05-20T22:53:10.099Z,68.80
2019-05-20T22:55:39.839Z,64.00
2019-05-20T22:58:10.020Z,64.20
2019-05-20T23:00:42.293Z,63.00
2019-05-20T23:03:12.347Z,64.80
2019-05-20T23:05:42.128Z,65.00
2019-05-20T23:08:22.250Z,64.80
2019-05-20T23:10:55.429Z,71.20
2019-05-20T23:15:59.245Z,62.30
2019-05-20T23:18:32.050Z,72.50
2019-05-20T23:21:03.454Z,72.70
2019-05-20T23:23:34.806Z,73.00
2019-05-20T23:26:08.806Z,72.60
2019-05-20T23:28:41.567Z,65.00
2019-05-20T23:31:16.751Z,72.70
2019-05-20T23:33:46.723Z,66.20
2019-05-20T23:36:18.047Z,73.90
2019-05-20T23:38:48.167Z,73.60
2019-05-20T23:41:18.036Z,73.80
2019-05-20T23:43:50.326Z,73.40
2019-05-20T23:46:22.898Z,74.00
2019-05-20T23:48:52.698Z,74.10
2019-05-20T23:51:22.538Z,74.10
2019-05-20T23:53:54.986Z,75.00
2019-05-20T23:56:28.736Z,75.00
2019-05-20T23:58:58.516Z,74.90
